sensor_id;sensor_type;location;lat;lon;timestamp;P1;durP1;ratioP1;P2;durP2;ratioP2
28459;SDS011;32528;45.712;9.192;2023-03-31T00:00:34;8.95;;;4.15;;
28459;SDS011;32528;45.712;9.192;2023-03-31T00:02:35;14.00;;;4.82;;
28459;SDS011;32528;45.712;9.192;2023-03-31T00:04:42;9.98;;;4.03;;
28459;SDS011;32528;45.712;9.192;2023-03-31T00:06:46;8.68;;;4.13;;
28459;SDS011;32528;45.712;9.192;2023-03-31T00:08:47;12.13;;;4.63;;
28459;SDS011;32528;45.712;9.192;2023-03-31T00:10:50;21.48;;;4.03;;
28459;SDS011;32528;45.712;9.192;2023-03-31T00:12:51;15.55;;;3.95;;
28459;SDS011;32528;45.712;9.192;2023-03-31T00:14:52;12.23;;;4.63;;
28459;SDS011;32528;45.712;9.192;2023-03-31T00:16:53;11.15;;;4.20;;
28459;SDS011;32528;45.712;9.192;2023-03-31T00:18:54;11.93;;;3.70;;
28459;SDS011;32528;45.712;9.192;2023-03-31T00:20:58;12.13;;;3.88;;
28459;SDS011;32528;45.712;9.192;2023-03-31T00:23:06;9.40;;;3.60;;
28459;SDS011;32528;45.712;9.192;2023-03-31T00:25:09;12.70;;;4.15;;
28459;SDS011;32528;45.712;9.192;2023-03-31T00:27:10;11.40;;;3.30;;
28459;SDS011;32528;45.712;9.192;2023-03-31T00:29:12;8.13;;;3.03;;
28459;SDS011;32528;45.712;9.192;2023-03-31T00:31:13;7.85;;;3.33;;
28459;SDS011;32528;45.712;9.192;2023-03-31T00:33:14;8.52;;;2.85;;
28459;SDS011;32528;45.712;9.192;2023-03-31T00:35:16;7.95;;;3.10;;
28459;SDS011;32528;45.712;9.192;2023-03-31T00:37:17;13.50;;;3.17;;
28459;SDS011;32528;45.712;9.192;2023-03-31T00:39:18;14.40;;;2.60;;
28459;SDS011;32528;45.712;9.192;2023-03-31T00:41:19;14.18;;;4.43;;
28459;SDS011;32528;45.712;9.192;2023-03-31T00:43:23;11.38;;;3.42;;
28459;SDS011;32528;45.712;9.192;2023-03-31T00:45:31;9.73;;;3.28;;
28459;SDS011;32528;45.712;9.192;2023-03-31T00:47:32;12.23;;;3.90;;
28459;SDS011;32528;45.712;9.192;2023-03-31T00:49:35;7.38;;;3.10;;
28459;SDS011;32528;45.712;9.192;2023-03-31T00:51:44;16.35;;;3.15;;
28459;SDS011;32528;45.712;9.192;2023-03-31T00:53:47;13.40;;;3.38;;
28459;SDS011;32528;45.712;9.192;2023-03-31T00:56:01;10.40;;;3.00;;
28459;SDS011;32528;45.712;9.192;2023-03-31T00:58:07;13.55;;;3.65;;
28459;SDS011;32528;45.712;9.192;2023-03-31T01:00:13;10.32;;;3.50;;
28459;SDS011;32528;45.712;9.192;2023-03-31T01:02:15;17.20;;;3.13;;
28459;SDS011;32528;45.712;9.192;2023-03-31T01:04:19;10.50;;;4.28;;
28459;SDS011;32528;45.712;9.192;2023-03-31T01:06:23;12.15;;;3.50;;
28459;SDS011;32528;45.712;9.192;2023-03-31T01:08:25;16.77;;;2.88;;
28459;SDS011;32528;45.712;9.192;2023-03-31T01:10:27;10.15;;;3.50;;
28459;SDS011;32528;45.712;9.192;2023-03-31T01:12:32;13.15;;;3.28;;
28459;SDS011;32528;45.712;9.192;2023-03-31T01:14:36;21.65;;;4.13;;
28459;SDS011;32528;45.712;9.192;2023-03-31T01:16:36;6.55;;;2.70;;
28459;SDS011;32528;45.712;9.192;2023-03-31T01:18:38;10.73;;;3.13;;
28459;SDS011;32528;45.712;9.192;2023-03-31T01:25:25;10.88;;;3.47;;
28459;SDS011;32528;45.712;9.192;2023-03-31T01:34:24;12.65;;;3.40;;
28459;SDS011;32528;45.712;9.192;2023-03-31T01:43:23;14.63;;;3.28;;
28459;SDS011;32528;45.712;9.192;2023-03-31T01:45:35;12.45;;;3.00;;
28459;SDS011;32528;45.712;9.192;2023-03-31T01:57:21;9.57;;;2.80;;
28459;SDS011;32528;45.712;9.192;2023-03-31T01:59:40;20.98;;;3.20;;
28459;SDS011;32528;45.712;9.192;2023-03-31T02:01:50;7.60;;;2.83;;
28459;SDS011;32528;45.712;9.192;2023-03-31T02:04:02;10.10;;;2.70;;
28459;SDS011;32528;45.712;9.192;2023-03-31T02:06:09;16.85;;;3.22;;
28459;SDS011;32528;45.712;9.192;2023-03-31T02:08:14;10.55;;;2.92;;
28459;SDS011;32528;45.712;9.192;2023-03-31T02:10:21;11.52;;;3.05;;
28459;SDS011;32528;45.712;9.192;2023-03-31T02:12:25;7.57;;;2.70;;
28459;SDS011;32528;45.712;9.192;2023-03-31T02:14:27;8.40;;;2.47;;
28459;SDS011;32528;45.712;9.192;2023-03-31T02:16:30;7.60;;;1.88;;
28459;SDS011;32528;45.712;9.192;2023-03-31T02:18:33;12.90;;;2.25;;
28459;SDS011;32528;45.712;9.192;2023-03-31T02:20:40;6.78;;;2.50;;
28459;SDS011;32528;45.712;9.192;2023-03-31T02:22:44;8.80;;;2.38;;
28459;SDS011;32528;45.712;9.192;2023-03-31T02:24:49;7.00;;;2.03;;
28459;SDS011;32528;45.712;9.192;2023-03-31T02:29:08;9.02;;;2.85;;
28459;SDS011;32528;45.712;9.192;2023-03-31T02:33:14;15.27;;;3.55;;
28459;SDS011;32528;45.712;9.192;2023-03-31T02:35:18;9.77;;;2.97;;
28459;SDS011;32528;45.712;9.192;2023-03-31T02:37:20;8.45;;;1.88;;
28459;SDS011;32528;45.712;9.192;2023-03-31T02:39:25;8.30;;;2.65;;
28459;SDS011;32528;45.712;9.192;2023-03-31T02:41:32;8.43;;;2.47;;
28459;SDS011;32528;45.712;9.192;2023-03-31T02:43:33;6.75;;;2.33;;
28459;SDS011;32528;45.712;9.192;2023-03-31T02:45:47;8.63;;;2.35;;
28459;SDS011;32528;45.712;9.192;2023-03-31T02:47:50;10.68;;;2.63;;
28459;SDS011;32528;45.712;9.192;2023-03-31T02:49:52;9.20;;;2.75;;
28459;SDS011;32528;45.712;9.192;2023-03-31T02:56:30;10.20;;;2.63;;
28459;SDS011;32528;45.712;9.192;2023-03-31T03:03:40;7.10;;;2.15;;
28459;SDS011;32528;45.712;9.192;2023-03-31T03:10:25;6.63;;;2.15;;
28459;SDS011;32528;45.712;9.192;2023-03-31T03:15:06;8.38;;;2.92;;
28459;SDS011;32528;45.712;9.192;2023-03-31T03:17:16;14.00;;;2.88;;
28459;SDS011;32528;45.712;9.192;2023-03-31T03:19:24;12.25;;;2.35;;
28459;SDS011;32528;45.712;9.192;2023-03-31T03:21:27;10.15;;;2.88;;
28459;SDS011;32528;45.712;9.192;2023-03-31T03:23:28;8.48;;;2.25;;
28459;SDS011;32528;45.712;9.192;2023-03-31T03:25:29;11.00;;;2.45;;
28459;SDS011;32528;45.712;9.192;2023-03-31T03:27:29;4.05;;;1.85;;
28459;SDS011;32528;45.712;9.192;2023-03-31T03:29:32;8.43;;;2.63;;
28459;SDS011;32528;45.712;9.192;2023-03-31T03:31:33;7.03;;;1.80;;
28459;SDS011;32528;45.712;9.192;2023-03-31T03:33:34;4.82;;;2.17;;
28459;SDS011;32528;45.712;9.192;2023-03-31T03:35:34;10.32;;;2.70;;
28459;SDS011;32528;45.712;9.192;2023-03-31T03:37:35;10.77;;;2.88;;
28459;SDS011;32528;45.712;9.192;2023-03-31T03:39:36;6.00;;;2.30;;
28459;SDS011;32528;45.712;9.192;2023-03-31T03:41:37;7.00;;;2.40;;
28459;SDS011;32528;45.712;9.192;2023-03-31T03:43:38;10.20;;;2.40;;
28459;SDS011;32528;45.712;9.192;2023-03-31T03:45:39;10.95;;;2.50;;
28459;SDS011;32528;45.712;9.192;2023-03-31T03:47:40;6.10;;;2.00;;
28459;SDS011;32528;45.712;9.192;2023-03-31T03:49:42;6.28;;;1.75;;
28459;SDS011;32528;45.712;9.192;2023-03-31T03:51:42;10.88;;;2.67;;
28459;SDS011;32528;45.712;9.192;2023-03-31T03:53:43;10.23;;;2.65;;
28459;SDS011;32528;45.712;9.192;2023-03-31T03:55:44;7.90;;;2.92;;
28459;SDS011;32528;45.712;9.192;2023-03-31T03:57:48;7.65;;;1.80;;
28459;SDS011;32528;45.712;9.192;2023-03-31T03:59:48;13.13;;;2.90;;
28459;SDS011;32528;45.712;9.192;2023-03-31T04:01:50;8.27;;;1.98;;
28459;SDS011;32528;45.712;9.192;2023-03-31T04:03:51;8.25;;;2.00;;
28459;SDS011;32528;45.712;9.192;2023-03-31T04:05:52;11.52;;;2.17;;
28459;SDS011;32528;45.712;9.192;2023-03-31T04:07:53;7.55;;;1.92;;
28459;SDS011;32528;45.712;9.192;2023-03-31T04:09:53;6.15;;;2.72;;
28459;SDS011;32528;45.712;9.192;2023-03-31T04:11:54;14.38;;;3.13;;
28459;SDS011;32528;45.712;9.192;2023-03-31T04:13:55;6.18;;;2.55;;
28459;SDS011;32528;45.712;9.192;2023-03-31T04:15:56;14.05;;;2.25;;
28459;SDS011;32528;45.712;9.192;2023-03-31T04:17:57;10.43;;;1.77;;
28459;SDS011;32528;45.712;9.192;2023-03-31T04:20:05;12.85;;;2.95;;
28459;SDS011;32528;45.712;9.192;2023-03-31T04:22:10;10.13;;;2.60;;
28459;SDS011;32528;45.712;9.192;2023-03-31T04:24:14;5.80;;;2.25;;
28459;SDS011;32528;45.712;9.192;2023-03-31T04:26:20;11.73;;;2.28;;
28459;SDS011;32528;45.712;9.192;2023-03-31T04:28:25;9.80;;;2.05;;
28459;SDS011;32528;45.712;9.192;2023-03-31T04:30:34;11.60;;;2.05;;
28459;SDS011;32528;45.712;9.192;2023-03-31T04:32:38;13.32;;;2.97;;
28459;SDS011;32528;45.712;9.192;2023-03-31T04:34:39;10.10;;;1.92;;
28459;SDS011;32528;45.712;9.192;2023-03-31T04:36:43;3.08;;;1.38;;
28459;SDS011;32528;45.712;9.192;2023-03-31T04:38:49;3.67;;;1.38;;
28459;SDS011;32528;45.712;9.192;2023-03-31T04:40:53;8.80;;;2.45;;
28459;SDS011;32528;45.712;9.192;2023-03-31T04:42:55;15.55;;;2.65;;
28459;SDS011;32528;45.712;9.192;2023-03-31T04:44:57;6.30;;;1.80;;
28459;SDS011;32528;45.712;9.192;2023-03-31T04:46:59;7.63;;;1.42;;
28459;SDS011;32528;45.712;9.192;2023-03-31T04:49:02;4.53;;;1.58;;
28459;SDS011;32528;45.712;9.192;2023-03-31T04:51:04;7.88;;;1.80;;
28459;SDS011;32528;45.712;9.192;2023-03-31T04:53:05;10.77;;;2.47;;
28459;SDS011;32528;45.712;9.192;2023-03-31T04:55:06;7.88;;;2.17;;
28459;SDS011;32528;45.712;9.192;2023-03-31T04:57:07;8.38;;;1.20;;
28459;SDS011;32528;45.712;9.192;2023-03-31T04:59:09;5.82;;;2.47;;
28459;SDS011;32528;45.712;9.192;2023-03-31T05:01:10;8.88;;;3.28;;
28459;SDS011;32528;45.712;9.192;2023-03-31T05:03:12;11.07;;;2.08;;
28459;SDS011;32528;45.712;9.192;2023-03-31T05:05:13;10.30;;;2.50;;
28459;SDS011;32528;45.712;9.192;2023-03-31T05:07:14;6.57;;;1.67;;
28459;SDS011;32528;45.712;9.192;2023-03-31T05:09:15;7.30;;;1.60;;
28459;SDS011;32528;45.712;9.192;2023-03-31T05:11:16;8.05;;;1.92;;
28459;SDS011;32528;45.712;9.192;2023-03-31T05:13:17;14.00;;;3.50;;
28459;SDS011;32528;45.712;9.192;2023-03-31T05:15:18;7.57;;;2.30;;
28459;SDS011;32528;45.712;9.192;2023-03-31T05:17:19;5.95;;;2.03;;
28459;SDS011;32528;45.712;9.192;2023-03-31T05:19:21;6.68;;;2.10;;
28459;SDS011;32528;45.712;9.192;2023-03-31T05:21:21;9.93;;;2.28;;
28459;SDS011;32528;45.712;9.192;2023-03-31T05:23:23;7.97;;;1.83;;
28459;SDS011;32528;45.712;9.192;2023-03-31T05:25:23;12.98;;;2.97;;
28459;SDS011;32528;45.712;9.192;2023-03-31T05:27:24;7.60;;;1.95;;
28459;SDS011;32528;45.712;9.192;2023-03-31T05:29:25;5.60;;;1.80;;
28459;SDS011;32528;45.712;9.192;2023-03-31T05:31:26;12.68;;;2.80;;
28459;SDS011;32528;45.712;9.192;2023-03-31T05:33:27;7.38;;;2.13;;
28459;SDS011;32528;45.712;9.192;2023-03-31T05:35:28;15.93;;;5.68;;
28459;SDS011;32528;45.712;9.192;2023-03-31T05:37:29;9.05;;;3.38;;
28459;SDS011;32528;45.712;9.192;2023-03-31T05:39:30;22.17;;;7.88;;
28459;SDS011;32528;45.712;9.192;2023-03-31T05:41:32;32.15;;;9.48;;
28459;SDS011;32528;45.712;9.192;2023-03-31T05:43:33;18.73;;;7.47;;
28459;SDS011;32528;45.712;9.192;2023-03-31T05:45:34;25.58;;;10.00;;
28459;SDS011;32528;45.712;9.192;2023-03-31T05:47:37;36.58;;;11.55;;
28459;SDS011;32528;45.712;9.192;2023-03-31T05:49:37;29.92;;;10.45;;
28459;SDS011;32528;45.712;9.192;2023-03-31T05:51:39;19.42;;;6.85;;
28459;SDS011;32528;45.712;9.192;2023-03-31T05:53:40;19.10;;;7.40;;
28459;SDS011;32528;45.712;9.192;2023-03-31T05:55:42;31.88;;;10.43;;
28459;SDS011;32528;45.712;9.192;2023-03-31T05:57:42;43.72;;;16.90;;
28459;SDS011;32528;45.712;9.192;2023-03-31T05:59:43;46.80;;;16.33;;
28459;SDS011;32528;45.712;9.192;2023-03-31T06:01:44;43.78;;;15.77;;
28459;SDS011;32528;45.712;9.192;2023-03-31T06:03:45;34.90;;;20.80;;
28459;SDS011;32528;45.712;9.192;2023-03-31T06:05:46;26.25;;;12.93;;
28459;SDS011;32528;45.712;9.192;2023-03-31T06:07:48;25.90;;;13.05;;
28459;SDS011;32528;45.712;9.192;2023-03-31T06:09:49;25.30;;;13.18;;
28459;SDS011;32528;45.712;9.192;2023-03-31T06:11:52;28.58;;;12.48;;
28459;SDS011;32528;45.712;9.192;2023-03-31T06:13:53;23.20;;;10.93;;
28459;SDS011;32528;45.712;9.192;2023-03-31T06:15:54;18.67;;;8.23;;
28459;SDS011;32528;45.712;9.192;2023-03-31T06:17:56;16.92;;;8.55;;
28459;SDS011;32528;45.712;9.192;2023-03-31T06:19:56;13.95;;;6.47;;
28459;SDS011;32528;45.712;9.192;2023-03-31T06:21:57;10.48;;;4.57;;
28459;SDS011;32528;45.712;9.192;2023-03-31T06:23:58;16.63;;;5.32;;
28459;SDS011;32528;45.712;9.192;2023-03-31T06:26:04;15.32;;;5.47;;
28459;SDS011;32528;45.712;9.192;2023-03-31T06:28:08;11.60;;;4.75;;
28459;SDS011;32528;45.712;9.192;2023-03-31T06:30:08;11.98;;;4.57;;
28459;SDS011;32528;45.712;9.192;2023-03-31T06:32:10;12.77;;;3.78;;
28459;SDS011;32528;45.712;9.192;2023-03-31T06:34:11;14.80;;;3.40;;
28459;SDS011;32528;45.712;9.192;2023-03-31T06:36:12;13.13;;;3.97;;
28459;SDS011;32528;45.712;9.192;2023-03-31T06:38:15;6.47;;;2.85;;
28459;SDS011;32528;45.712;9.192;2023-03-31T06:40:16;14.05;;;4.10;;
28459;SDS011;32528;45.712;9.192;2023-03-31T06:42:16;12.55;;;2.92;;
28459;SDS011;32528;45.712;9.192;2023-03-31T06:44:19;13.73;;;4.03;;
28459;SDS011;32528;45.712;9.192;2023-03-31T06:46:22;7.20;;;2.70;;
28459;SDS011;32528;45.712;9.192;2023-03-31T06:48:23;12.98;;;3.63;;
28459;SDS011;32528;45.712;9.192;2023-03-31T06:50:24;15.30;;;4.28;;
28459;SDS011;32528;45.712;9.192;2023-03-31T06:52:25;17.02;;;4.95;;
28459;SDS011;32528;45.712;9.192;2023-03-31T06:54:26;17.42;;;4.60;;
28459;SDS011;32528;45.712;9.192;2023-03-31T06:56:26;13.45;;;4.70;;
28459;SDS011;32528;45.712;9.192;2023-03-31T06:58:27;15.20;;;5.20;;
28459;SDS011;32528;45.712;9.192;2023-03-31T07:00:30;14.98;;;4.60;;
28459;SDS011;32528;45.712;9.192;2023-03-31T07:02:31;18.38;;;5.90;;
28459;SDS011;32528;45.712;9.192;2023-03-31T07:04:32;19.98;;;5.68;;
28459;SDS011;32528;45.712;9.192;2023-03-31T07:06:33;16.20;;;5.97;;
28459;SDS011;32528;45.712;9.192;2023-03-31T07:08:35;18.98;;;6.63;;
28459;SDS011;32528;45.712;9.192;2023-03-31T07:10:35;19.83;;;6.00;;
28459;SDS011;32528;45.712;9.192;2023-03-31T07:12:36;24.95;;;6.45;;
28459;SDS011;32528;45.712;9.192;2023-03-31T07:14:37;12.95;;;5.18;;
28459;SDS011;32528;45.712;9.192;2023-03-31T07:16:38;12.60;;;5.07;;
28459;SDS011;32528;45.712;9.192;2023-03-31T07:18:38;21.90;;;5.75;;
28459;SDS011;32528;45.712;9.192;2023-03-31T07:20:41;17.77;;;5.70;;
28459;SDS011;32528;45.712;9.192;2023-03-31T07:22:46;32.63;;;6.50;;
28459;SDS011;32528;45.712;9.192;2023-03-31T07:24:48;17.25;;;5.60;;
28459;SDS011;32528;45.712;9.192;2023-03-31T07:26:49;15.98;;;5.95;;
28459;SDS011;32528;45.712;9.192;2023-03-31T07:28:50;14.82;;;5.78;;
28459;SDS011;32528;45.712;9.192;2023-03-31T07:30:51;14.90;;;4.88;;
28459;SDS011;32528;45.712;9.192;2023-03-31T07:32:53;16.58;;;5.75;;
28459;SDS011;32528;45.712;9.192;2023-03-31T07:34:54;19.30;;;5.50;;
28459;SDS011;32528;45.712;9.192;2023-03-31T07:36:59;17.55;;;4.20;;
28459;SDS011;32528;45.712;9.192;2023-03-31T07:39:00;16.58;;;3.63;;
28459;SDS011;32528;45.712;9.192;2023-03-31T07:41:01;11.57;;;4.15;;
28459;SDS011;32528;45.712;9.192;2023-03-31T07:43:02;9.10;;;3.50;;
28459;SDS011;32528;45.712;9.192;2023-03-31T07:45:03;14.05;;;3.83;;
28459;SDS011;32528;45.712;9.192;2023-03-31T07:47:05;14.77;;;3.33;;
28459;SDS011;32528;45.712;9.192;2023-03-31T07:49:06;9.52;;;2.08;;
28459;SDS011;32528;45.712;9.192;2023-03-31T07:51:06;6.28;;;2.75;;
28459;SDS011;32528;45.712;9.192;2023-03-31T07:53:10;15.05;;;3.20;;
28459;SDS011;32528;45.712;9.192;2023-03-31T07:55:14;17.23;;;4.70;;
28459;SDS011;32528;45.712;9.192;2023-03-31T07:57:15;16.00;;;8.35;;
28459;SDS011;32528;45.712;9.192;2023-03-31T07:59:18;15.82;;;4.57;;
28459;SDS011;32528;45.712;9.192;2023-03-31T08:01:20;12.40;;;3.50;;
28459;SDS011;32528;45.712;9.192;2023-03-31T08:03:24;12.65;;;3.00;;
28459;SDS011;32528;45.712;9.192;2023-03-31T08:05:27;12.55;;;2.40;;
28459;SDS011;32528;45.712;9.192;2023-03-31T08:07:27;15.43;;;2.65;;
28459;SDS011;32528;45.712;9.192;2023-03-31T08:09:31;13.05;;;2.50;;
28459;SDS011;32528;45.712;9.192;2023-03-31T08:11:31;19.10;;;3.55;;
28459;SDS011;32528;45.712;9.192;2023-03-31T08:13:33;17.02;;;3.13;;
28459;SDS011;32528;45.712;9.192;2023-03-31T08:15:33;9.70;;;2.72;;
28459;SDS011;32528;45.712;9.192;2023-03-31T08:17:34;15.38;;;2.95;;
28459;SDS011;32528;45.712;9.192;2023-03-31T08:19:35;8.40;;;2.40;;
28459;SDS011;32528;45.712;9.192;2023-03-31T08:21:37;12.50;;;2.63;;
28459;SDS011;32528;45.712;9.192;2023-03-31T08:23:38;21.58;;;2.90;;
28459;SDS011;32528;45.712;9.192;2023-03-31T08:25:39;10.60;;;2.65;;
28459;SDS011;32528;45.712;9.192;2023-03-31T08:27:40;12.40;;;2.72;;
28459;SDS011;32528;45.712;9.192;2023-03-31T08:29:40;13.77;;;2.03;;
28459;SDS011;32528;45.712;9.192;2023-03-31T08:31:41;13.68;;;2.58;;
28459;SDS011;32528;45.712;9.192;2023-03-31T08:33:43;12.90;;;2.10;;
28459;SDS011;32528;45.712;9.192;2023-03-31T08:35:44;10.15;;;2.67;;
28459;SDS011;32528;45.712;9.192;2023-03-31T08:37:45;13.88;;;2.88;;
28459;SDS011;32528;45.712;9.192;2023-03-31T08:39:46;9.60;;;2.35;;
28459;SDS011;32528;45.712;9.192;2023-03-31T08:44:04;15.18;;;3.00;;
28459;SDS011;32528;45.712;9.192;2023-03-31T08:46:13;10.43;;;1.70;;
28459;SDS011;32528;45.712;9.192;2023-03-31T08:48:20;11.55;;;2.42;;
28459;SDS011;32528;45.712;9.192;2023-03-31T08:50:26;11.80;;;2.72;;
28459;SDS011;32528;45.712;9.192;2023-03-31T08:52:31;18.83;;;3.13;;
28459;SDS011;32528;45.712;9.192;2023-03-31T08:54:40;14.85;;;2.80;;
28459;SDS011;32528;45.712;9.192;2023-03-31T08:56:50;12.13;;;3.03;;
28459;SDS011;32528;45.712;9.192;2023-03-31T08:58:52;13.23;;;4.78;;
28459;SDS011;32528;45.712;9.192;2023-03-31T09:03:15;13.85;;;3.72;;
28459;SDS011;32528;45.712;9.192;2023-03-31T09:05:28;16.67;;;2.92;;
28459;SDS011;32528;45.712;9.192;2023-03-31T09:07:48;18.55;;;4.22;;
28459;SDS011;32528;45.712;9.192;2023-03-31T09:10:15;16.35;;;3.25;;
28459;SDS011;32528;45.712;9.192;2023-03-31T09:15:11;13.85;;;3.00;;
28459;SDS011;32528;45.712;9.192;2023-03-31T09:19:37;17.20;;;2.92;;
28459;SDS011;32528;45.712;9.192;2023-03-31T09:21:47;8.07;;;3.15;;
28459;SDS011;32528;45.712;9.192;2023-03-31T09:26:22;9.23;;;2.72;;
28459;SDS011;32528;45.712;9.192;2023-03-31T09:28:36;8.20;;;2.92;;
28459;SDS011;32528;45.712;9.192;2023-03-31T09:30:38;18.63;;;3.28;;
28459;SDS011;32528;45.712;9.192;2023-03-31T09:32:41;11.45;;;3.03;;
28459;SDS011;32528;45.712;9.192;2023-03-31T09:34:43;12.73;;;3.65;;
28459;SDS011;32528;45.712;9.192;2023-03-31T09:36:45;9.82;;;2.65;;
28459;SDS011;32528;45.712;9.192;2023-03-31T09:38:46;13.68;;;3.15;;
28459;SDS011;32528;45.712;9.192;2023-03-31T09:40:47;11.25;;;2.53;;
28459;SDS011;32528;45.712;9.192;2023-03-31T09:43:07;19.05;;;2.95;;
28459;SDS011;32528;45.712;9.192;2023-03-31T09:45:24;18.23;;;2.67;;
28459;SDS011;32528;45.712;9.192;2023-03-31T09:49:33;18.08;;;2.92;;
28459;SDS011;32528;45.712;9.192;2023-03-31T09:51:36;15.13;;;3.55;;
28459;SDS011;32528;45.712;9.192;2023-03-31T09:55:54;17.27;;;3.28;;
28459;SDS011;32528;45.712;9.192;2023-03-31T09:58:00;13.95;;;2.95;;
28459;SDS011;32528;45.712;9.192;2023-03-31T10:03:18;11.90;;;3.08;;
28459;SDS011;32528;45.712;9.192;2023-03-31T10:04:50;15.48;;;3.33;;
28459;SDS011;32528;45.712;9.192;2023-03-31T10:06:51;18.63;;;3.05;;
28459;SDS011;32528;45.712;9.192;2023-03-31T10:13:06;17.15;;;3.90;;
28459;SDS011;32528;45.712;9.192;2023-03-31T10:17:28;14.77;;;3.03;;
28459;SDS011;32528;45.712;9.192;2023-03-31T10:19:33;17.73;;;3.42;;
28459;SDS011;32528;45.712;9.192;2023-03-31T10:21:38;12.98;;;2.88;;
28459;SDS011;32528;45.712;9.192;2023-03-31T10:23:40;14.60;;;2.53;;
28459;SDS011;32528;45.712;9.192;2023-03-31T10:25:46;17.85;;;3.38;;
28459;SDS011;32528;45.712;9.192;2023-03-31T10:27:50;11.20;;;2.28;;
28459;SDS011;32528;45.712;9.192;2023-03-31T10:29:53;11.82;;;3.22;;
28459;SDS011;32528;45.712;9.192;2023-03-31T10:32:02;11.50;;;3.17;;
28459;SDS011;32528;45.712;9.192;2023-03-31T10:34:08;20.63;;;4.45;;
28459;SDS011;32528;45.712;9.192;2023-03-31T10:36:23;12.27;;;2.80;;
28459;SDS011;32528;45.712;9.192;2023-03-31T10:38:45;8.93;;;2.53;;
28459;SDS011;32528;45.712;9.192;2023-03-31T10:40:49;12.02;;;3.22;;
28459;SDS011;32528;45.712;9.192;2023-03-31T10:42:57;13.40;;;2.85;;
28459;SDS011;32528;45.712;9.192;2023-03-31T10:45:12;16.17;;;3.60;;
28459;SDS011;32528;45.712;9.192;2023-03-31T10:47:25;19.48;;;3.67;;
28459;SDS011;32528;45.712;9.192;2023-03-31T10:49:36;12.40;;;3.05;;
28459;SDS011;32528;45.712;9.192;2023-03-31T10:51:38;13.00;;;3.00;;
28459;SDS011;32528;45.712;9.192;2023-03-31T10:53:59;13.98;;;2.63;;
28459;SDS011;32528;45.712;9.192;2023-03-31T11:00:19;11.07;;;2.80;;
28459;SDS011;32528;45.712;9.192;2023-03-31T11:07:11;19.58;;;3.35;;
28459;SDS011;32528;45.712;9.192;2023-03-31T11:11:55;18.02;;;3.85;;
28459;SDS011;32528;45.712;9.192;2023-03-31T11:20:26;16.77;;;5.35;;
28459;SDS011;32528;45.712;9.192;2023-03-31T11:23:39;6.88;;;3.72;;
28459;SDS011;32528;45.712;9.192;2023-03-31T11:25:21;13.38;;;4.15;;
28459;SDS011;32528;45.712;9.192;2023-03-31T11:34:49;17.52;;;3.63;;
28459;SDS011;32528;45.712;9.192;2023-03-31T11:37:05;17.45;;;3.55;;
28459;SDS011;32528;45.712;9.192;2023-03-31T11:50:46;15.63;;;3.45;;
28459;SDS011;32528;45.712;9.192;2023-03-31T11:55:15;9.73;;;3.65;;
28459;SDS011;32528;45.712;9.192;2023-03-31T11:59:57;20.00;;;3.42;;
28459;SDS011;32528;45.712;9.192;2023-03-31T12:02:37;12.75;;;3.60;;
28459;SDS011;32528;45.712;9.192;2023-03-31T12:06:41;16.75;;;3.90;;
28459;SDS011;32528;45.712;9.192;2023-03-31T12:09:29;11.68;;;3.53;;
28459;SDS011;32528;45.712;9.192;2023-03-31T12:11:18;12.83;;;4.43;;
28459;SDS011;32528;45.712;9.192;2023-03-31T12:13:39;16.88;;;4.00;;
28459;SDS011;32528;45.712;9.192;2023-03-31T12:16:00;24.83;;;3.95;;
28459;SDS011;32528;45.712;9.192;2023-03-31T12:18:32;9.95;;;4.07;;
28459;SDS011;32528;45.712;9.192;2023-03-31T12:20:55;15.73;;;4.00;;
28459;SDS011;32528;45.712;9.192;2023-03-31T12:23:01;16.75;;;3.45;;
28459;SDS011;32528;45.712;9.192;2023-03-31T12:25:10;18.77;;;4.53;;
28459;SDS011;32528;45.712;9.192;2023-03-31T12:27:19;23.60;;;4.03;;
28459;SDS011;32528;45.712;9.192;2023-03-31T12:29:42;13.15;;;4.45;;
28459;SDS011;32528;45.712;9.192;2023-03-31T12:31:47;15.32;;;4.07;;
28459;SDS011;32528;45.712;9.192;2023-03-31T12:33:59;16.15;;;4.88;;
28459;SDS011;32528;45.712;9.192;2023-03-31T12:36:10;11.48;;;3.83;;
28459;SDS011;32528;45.712;9.192;2023-03-31T12:38:22;19.05;;;5.00;;
28459;SDS011;32528;45.712;9.192;2023-03-31T12:40:45;27.52;;;5.72;;
28459;SDS011;32528;45.712;9.192;2023-03-31T12:45:28;28.58;;;5.25;;
28459;SDS011;32528;45.712;9.192;2023-03-31T12:49:42;22.80;;;4.32;;
28459;SDS011;32528;45.712;9.192;2023-03-31T12:51:57;14.13;;;4.57;;
28459;SDS011;32528;45.712;9.192;2023-03-31T12:54:11;19.73;;;4.22;;
28459;SDS011;32528;45.712;9.192;2023-03-31T12:56:15;19.95;;;4.50;;
28459;SDS011;32528;45.712;9.192;2023-03-31T13:00:28;17.08;;;5.43;;
28459;SDS011;32528;45.712;9.192;2023-03-31T13:02:29;15.45;;;4.80;;
28459;SDS011;32528;45.712;9.192;2023-03-31T13:10:57;15.15;;;4.30;;
28459;SDS011;32528;45.712;9.192;2023-03-31T13:13:04;14.38;;;4.45;;
28459;SDS011;32528;45.712;9.192;2023-03-31T13:15:12;15.23;;;4.28;;
28459;SDS011;32528;45.712;9.192;2023-03-31T13:17:28;16.63;;;4.65;;
28459;SDS011;32528;45.712;9.192;2023-03-31T13:19:34;15.65;;;5.10;;
28459;SDS011;32528;45.712;9.192;2023-03-31T13:21:55;17.75;;;5.03;;
28459;SDS011;32528;45.712;9.192;2023-03-31T13:24:00;13.10;;;4.55;;
28459;SDS011;32528;45.712;9.192;2023-03-31T13:26:02;17.30;;;4.15;;
28459;SDS011;32528;45.712;9.192;2023-03-31T13:28:08;17.00;;;3.67;;
28459;SDS011;32528;45.712;9.192;2023-03-31T13:32:35;20.95;;;5.28;;
28459;SDS011;32528;45.712;9.192;2023-03-31T13:36:48;17.77;;;4.63;;
28459;SDS011;32528;45.712;9.192;2023-03-31T13:43:30;20.77;;;6.05;;
28459;SDS011;32528;45.712;9.192;2023-03-31T13:45:47;14.07;;;5.32;;
28459;SDS011;32528;45.712;9.192;2023-03-31T14:07:06;25.67;;;5.63;;
28459;SDS011;32528;45.712;9.192;2023-03-31T14:09:10;14.95;;;6.28;;
28459;SDS011;32528;45.712;9.192;2023-03-31T14:11:28;18.63;;;6.05;;
28459;SDS011;32528;45.712;9.192;2023-03-31T14:13:30;13.85;;;4.43;;
28459;SDS011;32528;45.712;9.192;2023-03-31T14:15:32;13.50;;;4.78;;
28459;SDS011;32528;45.712;9.192;2023-03-31T14:17:35;18.35;;;6.22;;
28459;SDS011;32528;45.712;9.192;2023-03-31T14:24:33;22.73;;;8.45;;
28459;SDS011;32528;45.712;9.192;2023-03-31T14:29:30;19.30;;;6.50;;
28459;SDS011;32528;45.712;9.192;2023-03-31T14:31:37;17.80;;;6.95;;
28459;SDS011;32528;45.712;9.192;2023-03-31T14:38:30;14.30;;;5.35;;
28459;SDS011;32528;45.712;9.192;2023-03-31T14:40:31;15.85;;;4.97;;
28459;SDS011;32528;45.712;9.192;2023-03-31T14:42:38;8.90;;;4.57;;
28459;SDS011;32528;45.712;9.192;2023-03-31T14:44:41;18.02;;;5.68;;
28459;SDS011;32528;45.712;9.192;2023-03-31T14:46:44;27.40;;;5.82;;
28459;SDS011;32528;45.712;9.192;2023-03-31T14:48:46;26.52;;;6.38;;
28459;SDS011;32528;45.712;9.192;2023-03-31T14:50:49;26.77;;;6.63;;
28459;SDS011;32528;45.712;9.192;2023-03-31T14:52:57;12.98;;;5.38;;
28459;SDS011;32528;45.712;9.192;2023-03-31T14:54:58;13.82;;;5.32;;
28459;SDS011;32528;45.712;9.192;2023-03-31T14:56:59;19.33;;;5.97;;
28459;SDS011;32528;45.712;9.192;2023-03-31T14:59:01;18.52;;;6.38;;
28459;SDS011;32528;45.712;9.192;2023-03-31T15:01:05;18.23;;;6.43;;
28459;SDS011;32528;45.712;9.192;2023-03-31T15:03:10;15.48;;;6.88;;
28459;SDS011;32528;45.712;9.192;2023-03-31T15:05:36;28.42;;;6.45;;
28459;SDS011;32528;45.712;9.192;2023-03-31T15:07:36;25.48;;;12.75;;
28459;SDS011;32528;45.712;9.192;2023-03-31T15:09:40;25.73;;;14.35;;
28459;SDS011;32528;45.712;9.192;2023-03-31T15:11:52;18.40;;;7.72;;
28459;SDS011;32528;45.712;9.192;2023-03-31T15:14:00;22.00;;;6.13;;
28459;SDS011;32528;45.712;9.192;2023-03-31T15:18:38;12.00;;;5.25;;